This is the latest recevied weather packets stored in our database for station/object OE-11061. If no packets are shown the sender has not sent any weather packets the latest 10 day(s).
| Time | Temp. | Humidity | Pressure | Rain* | Wind** | Luminosity | Snow |
|---|---|---|---|---|---|---|---|
| 1787987494 | 17.78° C | 74% | 1018.3 hPa | 0 mm | - | 433 W/m² | - |
| 1787987121 | 17.22° C | 77% | 1018.3 hPa | 0 mm | - | 403 W/m² | - |
| 1787986521 | 16.67° C | 82% | 1018.5 hPa | 0 mm | - | 344 W/m² | - |
| 1787985694 | 16.11° C | 82% | 1018.5 hPa | 0 mm | - | 321 W/m² | - |
| 1787985320 | 15.56° C | 85% | 1018.5 hPa | 0 mm | - | 291 W/m² | - |
| 1787984721 | 15° C | 88% | 1018.4 hPa | 0 mm | - | 261 W/m² | - |
| 1787983894 | 14.44° C | 89% | 1018.4 hPa | 0 mm | - | 224 W/m² | - |
| 1787982921 | 13.89° C | 95% | 1018.3 hPa | 0 mm | - | 60 W/m² | - |
| 1787982093 | 13.89° C | 94% | 1018.4 hPa | 0 mm | - | 82 W/m² | - |
| 1787981721 | 13.33° C | 94% | 1018.2 hPa | 0 mm | - | 105 W/m² | - |
| 1787981120 | 13.33° C | 95% | 1018.3 hPa | 0 mm | - | 75 W/m² | - |
| 1787980293 | 12.78° C | 95% | 1018.4 hPa | 0 mm | - | 52 W/m² | - |
| 1787979920 | 12.78° C | 95% | 1018.2 hPa | 0 mm | - | 15 W/m² | - |
| 1787979321 | 12.78° C | 94% | 1018.3 hPa | 0 mm | - | 7 W/m² | - |
| 1787978494 | 12.78° C | 94% | 1018.3 hPa | 0 mm | - | 0 W/m² | - |
| 1787978120 | 12.78° C | 94% | 1018.3 hPa | 0 mm | - | 0 W/m² | - |
| 1787977521 | 12.78° C | 94% | 1018.3 hPa | 0 mm | - | 0 W/m² | - |
| 1787976694 | 13.33° C | 93% | 1018.1 hPa | 0 mm | - | 0 W/m² | - |
| 1787976321 | 13.33° C | 93% | 1018 hPa | 0 mm | - | 0 W/m² | - |
| 1787975721 | 13.33° C | 93% | 1018 hPa | 0 mm | - | 0 W/m² | - |
| 1787975121 | 13.33° C | 91% | 1017.9 hPa | 0 mm | - | 0 W/m² | - |
| 1787974520 | 13.33° C | 92% | 1017.9 hPa | 0 mm | - | 0 W/m² | - |
| 1787973921 | 13.89° C | 92% | 1018 hPa | 0 mm | - | 0 W/m² | - |
| 1787973093 | 13.89° C | 93% | 1018.1 hPa | 0 mm | - | 0 W/m² | - |
| 1787972721 | 13.89° C | 91% | 1018.1 hPa | 0 mm | - | 0 W/m² | - |
* Rain latest hour (hover to see other rain measurements)
** Current wind speed in m/s (hover to see current wind gust speed)